Time;durP1;ratioP1;P1;durP2;ratioP2;P2;SDS_P1;SDS_P2;PMS_P1;PMS_P2;Temp;Humidity;BMP_temperature;BMP_pressure;BME280_temperature;BME280_humidity;BME280_pressure;Samples;Min_cycle;Max_cycle;Signal;HPM_P1;HPM_P2
2022/09/28 00:01:15;;;;;;;;;2.00;1.00;;;;;14.30;73.72;99457.00;5110397;27;45353;-65
2022/09/28 00:03:40;;;;;;;;;0.00;0.00;;;;;14.34;73.56;99465.97;5110950;27;45129;-66
2022/09/28 00:06:09;;;;;;;;;2.00;0.00;;;;;14.21;73.85;99445.50;5112727;27;45054;-63
2022/09/28 00:08:35;;;;;;;;;1.00;1.00;;;;;14.34;73.29;99466.84;5112116;27;45607;-64
2022/09/28 00:11:01;;;;;;;;;2.00;1.00;;;;;14.30;72.92;99443.59;5111861;27;45157;-65
2022/09/28 00:13:27;;;;;;;;;1.00;1.00;;;;;14.23;72.98;99432.94;5107354;27;45293;-65
2022/09/28 00:16:12;;;;;;;;;4.67;1.00;;;;;14.37;72.52;99458.75;5111786;27;45264;-65
2022/09/28 00:18:38;;;;;;;;;2.00;0.00;;;;;14.41;72.47;99466.78;5103144;27;45775;-66
2022/09/28 00:21:07;;;;;;;;;2.00;2.00;;;;;14.24;72.17;99434.69;5108328;27;45168;-65
2022/09/28 00:23:34;;;;;;;;;1.00;1.00;;;;;14.40;71.97;99459.63;5111536;27;45084;-66
2022/09/28 00:26:03;;;;;;;;;2.00;0.00;;;;;14.21;72.28;99421.31;5111618;27;45103;-66
2022/09/28 00:28:30;;;;;;;;;2.00;2.00;;;;;14.41;72.57;99461.41;5110843;27;46250;-65
2022/09/28 00:30:55;;;;;;;;;3.00;1.00;;;;;14.32;71.89;99444.47;5110749;27;45440;-65
2022/09/28 00:33:21;;;;;;;;;1.33;1.00;;;;;14.23;71.26;99427.56;5110041;27;45058;-66
2022/09/28 00:35:53;;;;;;;;;2.00;2.00;;;;;14.37;71.75;99457.88;5110305;27;44928;-65
2022/09/28 00:38:19;;;;;;;;;2.33;1.33;;;;;14.40;71.62;99457.81;5110902;27;45510;-65
2022/09/28 00:40:44;;;;;;;;;4.33;2.00;;;;;14.30;71.01;99446.28;5107201;27;56977;-65
2022/09/28 00:43:19;;;;;;;;;4.00;3.00;;;;;14.40;71.20;99451.56;5109458;27;56679;-67
2022/09/28 00:45:54;;;;;;;;;1.00;1.00;;;;;14.45;70.63;99453.31;5111231;27;45234;-65
2022/09/28 00:48:19;;;;;;;;;2.00;0.67;;;;;14.43;70.06;99455.09;5109422;27;45868;-65
2022/09/28 00:50:45;;;;;;;;;4.00;2.00;;;;;14.36;70.16;99445.34;5110366;27;44928;-67
2022/09/28 00:53:17;;;;;;;;;3.00;2.00;;;;;14.40;69.86;99452.44;5107468;27;45717;-64
2022/09/28 00:56:06;;;;;;;;;1.67;0.00;;;;;14.27;69.60;99427.53;5107695;27;46703;-67
2022/09/28 00:58:44;;;;;;;;;5.00;1.67;;;;;14.41;69.84;99453.34;5110087;27;45478;-69
2022/09/28 01:01:11;;;;;;;;;2.00;0.00;;;;;14.23;69.63;99431.13;5107814;27;45023;-64
2022/09/28 01:03:40;;;;;;;;;3.33;2.00;;;;;14.35;69.70;99451.59;5108822;27;45395;-65
2022/09/28 01:06:07;;;;;;;;;3.00;2.00;;;;;14.33;69.98;99435.50;5108901;27;45053;-68
2022/09/28 01:08:34;;;;;;;;;6.67;1.00;;;;;14.22;70.07;99423.09;5107824;27;46620;-68
2022/09/28 01:10:59;;;;;;;;;3.00;3.00;;;;;14.36;69.69;99454.28;5106627;27;45070;-65
2022/09/28 01:13:26;;;;;;;;;2.00;2.00;;;;;14.24;69.19;99432.94;5107844;27;45128;-66
2022/09/28 01:15:54;;;;;;;;;2.00;1.00;;;;;14.31;70.00;99453.44;5109309;27;45284;-66
2022/09/28 01:19:20;;;;;;;;;1.33;1.00;;;;;14.31;69.83;99439.13;5111053;27;45667;-68
2022/09/28 01:21:53;;;;;;;;;3.00;1.00;;;;;14.10;69.52;99416.03;5112788;27;44959;-65
2022/09/28 01:24:42;;;;;;;;;1.00;1.00;;;;;14.13;69.81;99413.31;5114437;27;45320;-65
2022/09/28 01:27:14;;;;;;;;;1.67;1.67;;;;;14.28;69.99;99425.72;5112625;27;45131;-65
2022/09/28 01:29:45;;;;;;;;;2.00;2.00;;;;;14.33;69.92;99438.19;5114529;27;45844;-65
2022/09/28 01:32:13;;;;;;;;;0.33;0.33;;;;;14.29;70.63;99432.88;5113849;27;45244;-68
2022/09/28 01:35:04;;;;;;;;;2.33;1.00;;;;;13.78;70.75;99337.56;5113960;27;45353;-66
2022/09/28 01:37:38;;;;;;;;;2.67;1.00;;;;;14.31;70.96;99434.63;5109218;27;45229;-67
2022/09/28 01:40:07;;;;;;;;;3.00;1.33;;;;;14.20;70.76;99423.09;5110563;27;45717;-65
2022/09/28 01:42:36;;;;;;;;;0.67;0.00;;;;;14.15;70.96;99415.06;5110235;27;44957;-71
2022/09/28 01:45:13;;;;;;;;;0.00;0.00;;;;;14.25;70.88;99426.63;5113696;27;44946;-72
2022/09/28 01:47:39;;;;;;;;;2.00;2.00;;;;;14.16;71.28;99408.81;5113656;27;45310;-67
2022/09/28 01:50:16;;;;;;;;;3.00;1.00;;;;;14.30;71.38;99424.78;5112878;27;45146;-63
2022/09/28 01:52:54;;;;;;;;;5.00;3.33;;;;;14.00;71.42;99364.22;5112288;27;45454;-65
2022/09/28 01:55:30;;;;;;;;;2.00;1.00;;;;;14.28;71.72;99410.47;5115012;27;45253;-65
2022/09/28 01:58:02;;;;;;;;;1.67;1.00;;;;;14.13;70.86;99395.41;5112467;27;45174;-65
2022/09/28 02:00:28;;;;;;;;;2.00;0.00;;;;;14.26;71.26;99420.34;5110965;27;45392;-65
2022/09/28 02:03:04;;;;;;;;;3.33;1.00;;;;;14.21;71.75;99424.88;5113568;27;45237;-66
2022/09/28 02:05:34;;;;;;;;;3.00;1.33;;;;;14.21;71.06;99418.63;5107275;27;45186;-65
2022/09/28 02:08:15;;;;;;;;;1.33;1.00;;;;;14.16;71.88;99414.19;5113641;27;45160;-65
2022/09/28 02:10:52;;;;;;;;;2.00;2.00;;;;;14.16;71.62;99410.63;5113605;27;45022;-66
2022/09/28 02:13:28;;;;;;;;;6.00;2.00;;;;;13.99;71.67;99387.50;5112933;27;45411;-66
2022/09/28 02:16:03;;;;;;;;;0.00;0.00;;;;;14.16;71.87;99407.94;5115330;27;45238;-66
2022/09/28 02:18:28;;;;;;;;;1.00;1.00;;;;;14.12;71.15;99406.16;5110116;27;45757;-65
2022/09/28 02:21:28;;;;;;;;;2.67;0.67;;;;;14.18;71.74;99411.47;5113074;27;45650;-65
2022/09/28 02:24:02;;;;;;;;;3.00;1.33;;;;;14.18;71.81;99415.06;5111714;27;44995;-65
2022/09/28 02:26:36;;;;;;;;;1.00;1.00;;;;;14.11;71.49;99393.66;5111176;27;45007;-64
2022/09/28 02:29:02;;;;;;;;;1.00;1.00;;;;;14.17;70.85;99402.53;5113278;27;45168;-65
2022/09/28 02:31:27;;;;;;;;;4.33;1.33;;;;;14.19;70.93;99391.78;5113982;27;45574;-65
2022/09/28 02:33:55;;;;;;;;;4.00;3.00;;;;;14.25;71.49;99406.94;5113363;27;45185;-64
2022/09/28 02:36:22;;;;;;;;;3.33;2.00;;;;;14.26;70.37;99406.03;5114377;27;45008;-69
2022/09/28 02:38:47;;;;;;;;;2.00;1.00;;;;;14.14;70.78;99375.72;5112180;27;45008;-69
2022/09/28 02:41:50;;;;;;;;;3.00;2.00;;;;;14.34;71.13;99402.38;5114795;27;45563;-66
2022/09/28 02:44:56;;;;;;;;;2.33;1.67;;;;;14.38;70.11;99411.28;5112314;27;46043;-64
2022/09/28 02:47:40;;;;;;;;;5.00;3.00;;;;;14.37;69.83;99402.34;5084728;27;46145;-66
2022/09/28 02:50:05;;;;;;;;;1.00;1.00;;;;;14.37;70.23;99401.44;5108593;27;45136;-65
2022/09/28 02:53:16;;;;;;;;;2.00;2.00;;;;;14.39;69.97;99399.63;5111756;27;53288;-67
2022/09/28 02:56:08;;;;;;;;;3.33;2.00;;;;;14.35;69.93;99398.78;5086176;27;45203;-65
2022/09/28 02:58:46;;;;;;;;;1.00;1.00;;;;;14.34;69.90;99404.16;5112634;27;45291;-64
2022/09/28 03:01:26;;;;;;;;;2.33;1.67;;;;;14.15;69.66;99372.09;5112203;27;45114;-64
2022/09/28 03:04:03;;;;;;;;;2.00;1.67;;;;;14.29;70.27;99397.97;5106326;27;46027;-65
2022/09/28 03:07:00;;;;;;;;;2.67;2.67;;;;;14.26;70.25;99403.34;5111095;27;45175;-67
2022/09/28 03:09:36;;;;;;;;;3.00;1.33;;;;;14.29;70.63;99408.72;5110639;27;45448;-64
2022/09/28 03:12:08;;;;;;;;;4.00;1.00;;;;;14.28;70.62;99402.41;5107246;27;45270;-65
2022/09/28 03:14:33;;;;;;;;;1.00;0.67;;;;;14.28;70.51;99406.91;5108518;27;46169;-65
2022/09/28 03:16:59;;;;;;;;;2.00;2.00;;;;;14.26;70.61;99408.72;5109799;27;44925;-66
2022/09/28 03:19:30;;;;;;;;;3.67;1.00;;;;;14.15;70.77;99381.97;5111779;27;45156;-65
2022/09/28 03:21:55;;;;;;;;;1.00;1.00;;;;;14.31;70.40;99412.25;5105864;27;45232;-66
2022/09/28 03:24:20;;;;;;;;;4.00;3.00;;;;;14.31;70.55;99406.88;5111660;27;45235;-66
2022/09/28 03:26:46;;;;;;;;;2.00;2.00;;;;;14.27;70.12;99407.81;5112970;27;45130;-66
2022/09/28 03:29:11;;;;;;;;;1.00;1.00;;;;;14.27;70.49;99410.50;5112502;27;48034;-68
2022/09/28 03:31:36;;;;;;;;;4.67;1.67;;;;;14.23;70.34;99400.69;5113466;27;45053;-64
2022/09/28 03:34:02;;;;;;;;;2.00;1.00;;;;;14.27;70.60;99407.81;5108990;27;45600;-73
2022/09/28 03:36:27;;;;;;;;;3.00;1.00;;;;;13.90;70.47;99358.03;5110993;27;45166;-68
2022/09/28 03:38:55;;;;;;;;;2.67;2.67;;;;;14.30;69.63;99416.72;5111451;27;45256;-69
2022/09/28 03:41:22;;;;;;;;;1.67;1.67;;;;;14.30;69.72;99416.72;5113106;27;45093;-69
2022/09/28 03:43:48;;;;;;;;;2.00;2.00;;;;;14.33;69.28;99416.69;5107767;27;46142;-66
2022/09/28 03:46:13;;;;;;;;;4.00;0.00;;;;;14.35;69.15;99428.34;5113231;27;45269;-64
2022/09/28 03:48:39;;;;;;;;;2.00;0.67;;;;;14.21;68.79;99400.72;5113182;27;45083;-65
2022/09/28 03:51:08;;;;;;;;;1.00;1.00;;;;;14.35;68.69;99431.03;5113279;27;45774;-64
2022/09/28 03:53:34;;;;;;;;;2.00;0.67;;;;;14.18;68.83;99396.25;5112947;27;45556;-68
2022/09/28 03:56:17;;;;;;;;;1.00;1.00;;;;;14.25;68.48;99409.63;5112682;27;45137;-65
2022/09/28 03:58:43;;;;;;;;;4.00;1.33;;;;;14.15;68.85;99390.03;5110928;27;46187;-67
2022/09/28 04:01:11;;;;;;;;;1.00;1.00;;;;;14.29;68.51;99409.59;5109644;27;51133;-65
2022/09/28 04:03:37;;;;;;;;;2.33;1.00;;;;;14.38;68.67;99425.59;5110624;27;46121;-66
2022/09/28 04:06:03;;;;;;;;;3.00;2.00;;;;;14.35;68.33;99424.72;5110406;27;45052;-66
2022/09/28 04:08:28;;;;;;;;;6.00;1.67;;;;;14.42;68.42;99437.22;5111101;27;45005;-64
2022/09/28 04:10:57;;;;;;;;;2.00;2.00;;;;;14.43;68.60;99433.59;5111468;27;45077;-64
2022/09/28 04:13:24;;;;;;;;;2.00;2.00;;;;;14.45;68.26;99430.91;5107955;27;45653;-69
2022/09/28 04:15:53;;;;;;;;;3.00;1.67;;;;;14.45;68.32;99431.81;5111285;27;45379;-64
2022/09/28 04:18:19;;;;;;;;;2.00;1.33;;;;;14.45;68.68;99430.91;5107632;27;45229;-65
2022/09/28 04:20:46;;;;;;;;;1.67;0.67;;;;;14.33;68.55;99418.50;5105537;27;45234;-64
2022/09/28 04:23:13;;;;;;;;;1.00;1.00;;;;;14.44;68.44;99439.91;5107319;27;45162;-64
2022/09/28 04:25:38;;;;;;;;;3.00;1.00;;;;;14.45;68.55;99436.28;5108356;27;45234;-64
2022/09/28 04:30:48;;;;;;;;;2.00;2.00;;;;;14.36;68.44;99438.16;5111971;27;45240;-65
2022/09/28 04:33:13;;;;;;;;;1.00;1.00;;;;;14.33;68.57;99438.19;5110560;27;45438;-66
2022/09/28 04:35:39;;;;;;;;;5.00;2.00;;;;;14.28;68.63;99444.53;5109725;27;45024;-64
2022/09/28 04:38:04;;;;;;;;;2.00;2.00;;;;;14.22;68.90;99447.25;5116558;27;45381;-68
2022/09/28 04:40:30;;;;;;;;;2.00;2.00;;;;;14.13;68.78;99457.19;5109486;27;44900;-65
2022/09/28 04:42:55;;;;;;;;;3.67;1.00;;;;;14.10;69.15;99459.00;5107680;27;64808;-66
2022/09/28 04:45:22;;;;;;;;;5.67;4.00;;;;;14.10;69.02;99464.38;5109894;27;45340;-65
2022/09/28 04:47:47;;;;;;;;;2.00;2.00;;;;;13.88;68.92;99440.41;5095370;27;45261;-65
2022/09/28 04:50:13;;;;;;;;;3.67;3.00;;;;;13.93;70.02;99457.34;5087593;28;45474;-66
2022/09/28 04:52:38;;;;;;;;;2.00;2.00;;;;;13.97;69.39;99460.91;5088272;28;45557;-65
2022/09/28 04:55:05;;;;;;;;;2.67;2.00;;;;;13.56;69.85;99390.56;5089610;28;56504;-65
2022/09/28 04:57:33;;;;;;;;;2.00;2.00;;;;;13.93;69.76;99449.31;5091089;28;45106;-64
2022/09/28 04:59:58;;;;;;;;;5.33;2.00;;;;;14.06;69.71;99458.16;5093351;27;45026;-64
2022/09/28 05:02:24;;;;;;;;;4.00;4.00;;;;;14.05;69.79;99445.63;5090448;28;45029;-65
2022/09/28 05:04:49;;;;;;;;;4.67;4.67;;;;;14.18;69.80;99463.41;5089218;28;45816;-66
2022/09/28 05:07:14;;;;;;;;;4.00;3.00;;;;;14.16;70.17;99450.91;5091217;28;55270;-64
2022/09/28 05:09:40;;;;;;;;;4.00;3.00;;;;;13.90;69.36;99389.38;5088661;28;49633;-66
2022/09/28 05:12:05;;;;;;;;;2.00;2.00;;;;;14.28;69.26;99441.84;5089177;28;59335;-64
2022/09/28 05:14:30;;;;;;;;;8.00;3.00;;;;;14.31;68.69;99452.56;5087124;28;49551;-66
2022/09/28 05:16:58;;;;;;;;;8.00;3.00;;;;;14.31;68.63;99442.69;5088141;28;52121;-64
2022/09/28 05:19:23;;;;;;;;;3.00;3.00;;;;;14.36;68.61;99442.66;5088569;28;45217;-66
2022/09/28 05:21:49;;;;;;;;;6.00;4.00;;;;;14.39;68.60;99445.31;5085711;28;45140;-64
2022/09/28 05:24:14;;;;;;;;;2.00;1.00;;;;;14.37;67.29;99450.69;5090123;28;44993;-64
2022/09/28 05:26:39;;;;;;;;;5.67;3.00;;;;;14.28;67.52;99434.66;5088337;28;59706;-69
2022/09/28 05:29:05;;;;;;;;;14.00;12.33;;;;;14.26;67.39;99438.28;5070823;28;45281;-64
2022/09/28 05:31:31;;;;;;;;;10.67;6.00;;;;;14.35;67.54;99448.91;5089815;28;45115;-64
2022/09/28 05:33:56;;;;;;;;;8.00;7.67;;;;;14.28;67.62;99429.28;5090047;28;45008;-66
2022/09/28 05:36:25;;;;;;;;;4.00;1.00;;;;;14.40;66.76;99447.06;5089063;27;44997;-67
2022/09/28 05:38:50;;;;;;;;;3.67;3.67;;;;;14.45;66.75;99442.56;5089634;28;45338;-66
2022/09/28 05:41:16;;;;;;;;;7.33;7.00;;;;;14.47;67.04;99451.50;5089677;28;49300;-63
2022/09/28 05:43:42;;;;;;;;;4.00;4.00;;;;;14.50;66.33;99447.88;5088943;28;45124;-67
2022/09/28 05:46:08;;;;;;;;;5.00;2.67;;;;;14.38;65.98;99432.78;5089438;27;45009;-66
2022/09/28 05:48:33;;;;;;;;;4.00;2.67;;;;;14.51;66.30;99455.91;5109060;27;45141;-65
2022/09/28 05:50:58;;;;;;;;;4.33;3.67;;;;;14.49;66.45;99454.16;5110468;27;46936;-64
2022/09/28 05:53:24;;;;;;;;;8.00;3.00;;;;;14.55;65.61;99460.38;5111700;27;45130;-67
2022/09/28 05:55:49;;;;;;;;;4.67;3.00;;;;;14.57;65.80;99461.25;5112762;27;44991;-65
2022/09/28 05:58:15;;;;;;;;;4.00;2.67;;;;;14.61;65.48;99469.31;5109897;27;45427;-66
2022/09/28 06:00:41;;;;;;;;;3.00;3.00;;;;;14.60;65.27;99463.06;5104690;27;45376;-64
2022/09/28 06:03:12;;;;;;;;;10.00;4.00;;;;;14.47;65.65;99446.13;5107924;27;45052;-64
2022/09/28 06:05:40;;;;;;;;;2.67;1.00;;;;;14.66;64.84;99480.91;5104358;27;45349;-65
2022/09/28 06:08:09;;;;;;;;;13.00;8.00;;;;;14.67;65.19;99472.81;5111060;27;45455;-65
2022/09/28 06:10:35;;;;;;;;;10.33;7.00;;;;;14.55;65.03;99456.78;5105198;27;45810;-64
2022/09/28 06:13:01;;;;;;;;;9.00;3.33;;;;;14.66;64.98;99462.06;5114514;27;45228;-64
2022/09/28 06:15:28;;;;;;;;;14.00;11.33;;;;;14.55;64.44;99440.66;5111206;27;45044;-66
2022/09/28 06:17:58;;;;;;;;;6.00;3.67;;;;;14.73;64.34;99471.84;5112217;27;45096;-65
2022/09/28 06:20:26;;;;;;;;;14.33;12.00;;;;;14.61;64.17;99454.06;5112694;27;45248;-66
2022/09/28 06:22:52;;;;;;;;;26.00;26.00;;;;;14.71;64.37;99463.78;5113141;27;45076;-65
2022/09/28 06:25:18;;;;;;;;;70.25;57.50;;;;;14.68;64.41;99461.16;5111264;27;45087;-65
2022/09/28 06:27:53;;;;;;;;;33.25;26.00;;;;;14.81;64.28;99478.03;5110424;27;45260;-67
2022/09/28 06:30:18;;;;;;;;;14.00;10.67;;;;;14.66;63.94;99467.44;5108148;27;45234;-67
2022/09/28 06:32:43;;;;;;;;;12.50;9.50;;;;;14.73;64.62;99487.97;5112796;27;45281;-67
2022/09/28 06:35:09;;;;;;;;;19.00;17.00;;;;;14.63;64.24;99468.38;5109184;27;55262;-66
2022/09/28 06:37:34;;;;;;;;;3.67;3.67;;;;;14.69;63.89;99476.38;5112374;27;52980;-66
2022/09/28 06:39:59;;;;;;;;;2.67;2.33;;;;;14.76;63.74;99500.50;5108144;27;45529;-67
2022/09/28 06:42:25;;;;;;;;;4.67;3.33;;;;;14.66;63.99;99483.59;5109238;27;45171;-65
2022/09/28 06:44:50;;;;;;;;;5.00;3.67;;;;;14.66;64.14;99500.59;5110223;27;45140;-66
2022/09/28 06:47:16;;;;;;;;;10.00;5.00;;;;;14.65;64.74;99495.22;5101739;27;45159;-66
2022/09/28 06:49:41;;;;;;;;;4.00;4.00;;;;;14.68;64.23;99503.25;5070834;28;46461;-67
2022/09/28 06:52:07;;;;;;;;;2.00;2.00;;;;;14.67;63.45;99506.88;5088164;28;45075;-66
2022/09/28 06:54:32;;;;;;;;;3.00;3.00;;;;;14.55;63.38;99489.94;5091270;28;45057;-66
2022/09/28 06:56:57;;;;;;;;;4.00;2.33;;;;;14.55;63.31;99495.31;5090230;28;48399;-68
2022/09/28 06:59:23;;;;;;;;;6.00;3.00;;;;;14.60;63.03;99511.44;5091732;28;69226;-67
2022/09/28 07:01:48;;;;;;;;;3.33;2.67;;;;;14.62;62.86;99512.31;5093184;28;45323;-66
2022/09/28 07:04:13;;;;;;;;;2.00;1.00;;;;;14.61;63.31;99515.00;5092407;28;60581;-65
2022/09/28 07:06:39;;;;;;;;;5.00;3.00;;;;;14.60;63.54;99500.69;5089281;27;45012;-67
2022/09/28 07:09:06;;;;;;;;;7.67;4.67;;;;;14.73;63.40;99529.22;5088346;27;45628;-65
2022/09/28 07:11:40;;;;;;;;;10.33;5.33;;;;;14.63;62.93;99500.63;5076898;27;45472;-65
2022/09/28 07:14:05;;;;;;;;;4.33;4.00;;;;;14.81;63.05;99520.16;5084080;28;45371;-66
2022/09/28 07:16:31;;;;;;;;;3.67;1.33;;;;;14.87;62.66;99534.44;5054846;27;45504;-65
2022/09/28 07:18:56;;;;;;;;;16.00;12.67;;;;;14.84;63.23;99533.59;5083354;28;57451;-67
2022/09/28 07:21:21;;;;;;;;;37.00;29.50;;;;;14.84;62.84;99531.78;5072606;28;45351;-68
2022/09/28 07:23:47;;;;;;;;;11.33;9.00;;;;;14.89;62.78;99534.41;5070726;28;60760;-67
2022/09/28 07:26:13;;;;;;;;;5.67;4.00;;;;;14.91;62.02;99533.50;5074139;28;45744;-66
2022/09/28 07:28:40;;;;;;;;;3.00;2.00;;;;;14.76;61.27;99505.88;5073360;27;46236;-66
2022/09/28 07:31:05;;;;;;;;;3.00;2.00;;;;;14.76;61.76;99506.75;5064108;28;45558;-66
2022/09/28 07:33:32;;;;;;;;;5.33;5.00;;;;;14.92;61.92;99529.00;5071336;28;45584;-67
2022/09/28 07:35:59;;;;;;;;;6.67;5.00;;;;;14.97;62.04;99537.91;5071167;28;46352;-68
2022/09/28 07:38:25;;;;;;;;;3.00;2.67;;;;;15.03;61.28;99540.53;5066011;28;45454;-67
2022/09/28 07:43:34;;;;;;;;;8.00;6.67;;;;;15.08;61.08;99530.63;5069474;28;45296;-66
2022/09/28 07:45:59;;;;;;;;;2.67;2.67;;;;;15.10;60.30;99544.06;5074107;28;45409;-68
2022/09/28 07:48:25;;;;;;;;;4.00;4.00;;;;;15.27;60.03;99550.09;5070025;27;46406;-68
2022/09/28 07:50:52;;;;;;;;;8.00;8.00;;;;;15.30;59.80;99563.53;5072261;28;45413;-67
2022/09/28 07:53:19;;;;;;;;;2.00;2.00;;;;;15.33;59.47;99559.94;5071795;28;45523;-67
2022/09/28 07:55:54;;;;;;;;;7.33;3.33;;;;;15.39;59.96;99561.63;5074363;28;45807;-66
2022/09/28 07:58:21;;;;;;;;;7.33;5.67;;;;;14.98;59.27;99490.38;5070690;28;46232;-66
2022/09/28 08:00:48;;;;;;;;;4.00;3.00;;;;;15.45;59.94;99572.34;5072153;27;45548;-68
2022/09/28 08:03:18;;;;;;;;;5.33;5.33;;;;;15.50;59.12;99564.22;5068857;27;45962;-67
2022/09/28 08:05:46;;;;;;;;;6.67;5.00;;;;;15.47;59.38;99571.38;5069528;27;45407;-68
2022/09/28 08:08:12;;;;;;;;;20.50;13.25;;;;;15.46;58.89;99571.44;5071567;28;47322;-67
2022/09/28 08:10:37;;;;;;;;;2.67;2.33;;;;;15.51;58.53;99569.56;5071613;28;45372;-66
2022/09/28 08:13:03;;;;;;;;;8.33;3.67;;;;;15.55;58.33;99565.91;5073071;28;45275;-66
2022/09/28 08:15:35;;;;;;;;;5.00;5.00;;;;;15.43;58.61;99533.78;5073177;28;45676;-67
2022/09/28 08:18:04;;;;;;;;;5.33;3.00;;;;;15.59;58.31;99556.91;5073940;28;45618;-65
2022/09/28 08:23:15;;;;;;;;;3.33;3.33;;;;;15.68;57.52;99573.84;5073962;28;45390;-68
2022/09/28 08:25:47;;;;;;;;;4.00;3.67;;;;;15.69;57.81;99575.63;5071553;28;46084;-66
2022/09/28 08:28:14;;;;;;;;;4.00;2.00;;;;;15.70;57.35;99578.28;5084748;28;46120;-66
2022/09/28 08:30:40;;;;;;;;;3.67;2.00;;;;;15.70;57.31;99572.03;5072534;28;45551;-66
2022/09/28 08:33:06;;;;;;;;;6.00;6.00;;;;;15.67;56.94;99572.94;5072371;28;45640;-69
2022/09/28 08:35:32;;;;;;;;;5.67;3.00;;;;;15.55;56.35;99551.56;5074020;28;45538;-67
2022/09/28 08:37:57;;;;;;;;;8.33;6.67;;;;;15.75;56.48;99580.91;5073969;28;45563;-66
2022/09/28 08:40:24;;;;;;;;;9.33;5.67;;;;;15.78;55.94;99576.41;5075898;28;45334;-66
2022/09/28 08:42:55;;;;;;;;;5.00;2.67;;;;;15.85;55.76;99577.22;5072786;28;45517;-66
2022/09/28 08:45:26;;;;;;;;;9.00;8.00;;;;;15.69;55.53;99546.00;5073637;28;45292;-66
2022/09/28 08:50:56;;;;;;;;;5.67;4.67;;;;;15.96;54.35;99580.66;5093284;27;45481;-66
2022/09/28 08:53:47;;;;;;;;;0.67;0.67;;;;;16.01;53.42;99581.47;5088140;27;45386;-67
2022/09/28 08:56:44;;;;;;;;;4.00;3.33;;;;;15.93;53.65;99586.06;5092241;27;45453;-68
2022/09/28 08:59:17;;;;;;;;;6.00;3.00;;;;;15.98;53.65;99588.72;5100965;27;46798;-66
2022/09/28 09:01:55;;;;;;;;;4.33;2.33;;;;;15.96;53.63;99587.84;5094260;27;45849;-66
2022/09/28 09:04:21;;;;;;;;;4.67;3.33;;;;;15.75;53.47;99557.56;5097071;27;45300;-65
2022/09/28 09:07:12;;;;;;;;;1.33;1.33;;;;;15.96;52.27;99588.72;5092736;27;45532;-66
2022/09/28 09:09:54;;;;;;;;;3.67;1.67;;;;;16.05;52.53;99581.44;5086060;27;46190;-65
2022/09/28 09:12:38;;;;;;;;;6.00;3.00;;;;;16.14;52.90;99587.56;5081779;27;45433;-66
2022/09/28 09:15:25;;;;;;;;;3.00;3.00;;;;;16.13;52.45;99582.22;5090269;27;45417;-66
2022/09/28 09:17:56;;;;;;;;;2.33;2.33;;;;;16.25;52.20;99591.91;5092994;27;45774;-67
2022/09/28 09:20:29;;;;;;;;;2.00;2.00;;;;;16.27;52.00;99581.97;5090727;27;46217;-67
2022/09/28 09:22:58;;;;;;;;;5.00;1.67;;;;;16.16;51.52;99574.97;5086570;27;45535;-67
2022/09/28 09:25:30;;;;;;;;;3.00;3.00;;;;;16.22;51.84;99587.47;5092073;27;45458;-66
2022/09/28 09:28:26;;;;;;;;;0.67;0.67;;;;;16.17;51.38;99590.22;5091398;27;45388;-65
2022/09/28 09:31:10;;;;;;;;;3.67;2.00;;;;;16.05;51.48;99590.41;5092382;27;45639;-66
2022/09/28 09:34:10;;;;;;;;;2.33;1.67;;;;;16.07;52.33;99590.38;5092606;27;45476;-69
2022/09/28 09:37:16;;;;;;;;;3.33;1.00;;;;;16.24;52.04;99590.16;5091597;27;45646;-65
2022/09/28 09:39:42;;;;;;;;;18.50;15.25;;;;;16.37;51.79;99584.53;5093514;27;45683;-67
2022/09/28 09:42:17;;;;;;;;;4.67;2.67;;;;;16.64;51.81;99587.66;5094385;27;46920;-69
2022/09/28 09:45:03;;;;;;;;;5.00;3.67;;;;;16.88;50.96;99588.22;5094848;27;45410;-67
2022/09/28 09:47:39;;;;;;;;;2.67;1.33;;;;;16.83;49.70;99558.56;5093875;27;45468;-65
2022/09/28 09:50:28;;;;;;;;;2.33;1.67;;;;;17.04;48.61;99596.88;5071566;27;45342;-68
2022/09/28 09:53:04;;;;;;;;;0.67;0.67;;;;;17.05;48.27;99588.78;5076182;28;45448;-67
2022/09/28 09:55:45;;;;;;;;;5.00;3.33;;;;;17.11;47.77;99582.38;5070285;28;45316;-66
2022/09/28 09:58:14;;;;;;;;;4.67;3.67;;;;;17.12;48.31;99582.31;5073971;28;45395;-66
2022/09/28 10:00:44;;;;;;;;;4.67;2.33;;;;;17.12;48.34;99582.31;5078426;27;46610;-67
2022/09/28 10:03:21;;;;;;;;;3.67;3.67;;;;;17.13;48.39;99570.63;5072326;28;46674;-66
2022/09/28 10:05:53;;;;;;;;;3.33;3.33;;;;;17.03;48.61;99552.84;5082301;28;45230;-65
2022/09/28 10:08:22;;;;;;;;;4.33;4.00;;;;;17.09;49.00;99574.31;5074978;28;45661;-66
2022/09/28 10:10:53;;;;;;;;;1.67;1.67;;;;;17.16;48.93;99579.56;5081094;28;45633;-66
2022/09/28 10:13:18;;;;;;;;;12.00;11.33;;;;;17.15;47.33;99569.72;5074097;28;45597;-67
2022/09/28 10:15:46;;;;;;;;;9.00;5.00;;;;;17.27;47.29;99574.84;5084473;28;45453;-66
2022/09/28 10:18:15;;;;;;;;;10.00;5.00;;;;;17.28;47.44;99571.25;5090849;28;45323;-68
2022/09/28 10:20:43;;;;;;;;;4.67;4.67;;;;;17.25;46.14;99571.31;5093585;28;44967;-64
2022/09/28 10:23:21;;;;;;;;;5.00;2.00;;;;;17.29;46.74;99576.63;5087300;28;45750;-65
2022/09/28 10:25:50;;;;;;;;;6.00;4.33;;;;;17.16;47.07;99556.19;5066578;28;45489;-67
2022/09/28 10:28:24;;;;;;;;;6.00;3.00;;;;;17.29;47.18;99571.22;5076964;28;45616;-65
2022/09/28 10:30:50;;;;;;;;;1.00;1.00;;;;;17.18;46.91;99577.75;5077783;27;45835;-65
2022/09/28 10:33:32;;;;;;;;;5.00;3.33;;;;;17.09;46.48;99559.91;5076746;27;46110;-64
2022/09/28 10:36:00;;;;;;;;;12.67;7.67;;;;;17.19;46.71;99580.44;5079544;27;45880;-64
2022/09/28 10:38:33;;;;;;;;;1.33;1.00;;;;;17.02;47.05;99551.03;5072738;28;45436;-62
2022/09/28 10:41:09;;;;;;;;;1.67;1.67;;;;;16.77;47.56;99520.91;5062281;28;45666;-67
2022/09/28 10:44:09;;;;;;;;;2.00;2.00;;;;;16.90;46.74;99549.47;5055651;28;46397;-63
2022/09/28 10:46:37;;;;;;;;;3.67;2.67;;;;;16.94;47.27;99545.81;5074290;27;45377;-65
2022/09/28 10:49:12;;;;;;;;;4.00;4.00;;;;;17.09;46.64;99544.63;5068046;27;45477;-66
2022/09/28 10:51:45;;;;;;;;;2.67;2.00;;;;;17.29;45.76;99560.41;5065787;28;45955;-64
2022/09/28 10:54:23;;;;;;;;;1.67;1.33;;;;;17.21;44.99;99562.38;5072373;28;46442;-64
2022/09/28 10:56:50;;;;;;;;;7.33;6.67;;;;;17.30;45.41;99564.00;5074705;27;45589;-64
2022/09/28 10:59:27;;;;;;;;;9.33;9.00;;;;;17.37;46.05;99565.66;5057145;28;45457;-67
2022/09/28 11:01:56;;;;;;;;;6.00;3.00;;;;;17.37;45.59;99565.66;5078112;27;45527;-66
2022/09/28 11:04:26;;;;;;;;;2.00;2.00;;;;;17.11;45.91;99544.59;5074650;28;46298;-65
2022/09/28 11:06:55;;;;;;;;;4.00;2.67;;;;;17.26;45.63;99567.69;5074524;28;45475;-65
2022/09/28 11:09:26;;;;;;;;;1.00;1.00;;;;;17.15;45.59;99573.28;5074673;28;45494;-63
2022/09/28 11:11:51;;;;;;;;;6.33;4.00;;;;;16.70;45.70;99503.09;5074679;28;45564;-63
2022/09/28 11:14:28;;;;;;;;;3.00;2.00;;;;;17.10;45.46;99578.78;5074623;28;45422;-64
2022/09/28 11:17:15;;;;;;;;;2.67;1.00;;;;;17.09;45.64;99581.50;5073866;27;45452;-64
2022/09/28 11:19:42;;;;;;;;;2.00;2.00;;;;;17.07;46.07;99573.44;5074424;28;45608;-66
2022/09/28 11:22:23;;;;;;;;;4.33;3.00;;;;;17.15;46.54;99581.38;5072712;28;45513;-65
2022/09/28 11:24:49;;;;;;;;;2.67;2.33;;;;;17.04;46.44;99570.81;5073844;28;45988;-64
2022/09/28 11:27:26;;;;;;;;;1.00;1.00;;;;;17.11;46.97;99577.88;5074478;28;45561;-65
2022/09/28 11:29:57;;;;;;;;;3.00;2.00;;;;;15.52;46.49;99291.38;5074550;28;45527;-64
2022/09/28 11:32:27;;;;;;;;;3.00;3.00;;;;;17.25;45.96;99569.47;5072404;28;45591;-66
2022/09/28 11:34:58;;;;;;;;;18.00;16.00;;;;;17.41;46.37;99569.19;5076849;27;46653;-65
2022/09/28 11:37:23;;;;;;;;;5.33;4.00;;;;;17.59;44.73;99566.09;5073824;28;45570;-65
2022/09/28 11:40:13;;;;;;;;;3.67;2.67;;;;;17.64;44.50;99557.91;5073845;28;45475;-64
2022/09/28 11:42:44;;;;;;;;;1.00;1.00;;;;;17.77;44.48;99570.22;5065537;28;45525;-63
2022/09/28 11:45:27;;;;;;;;;4.00;2.00;;;;;17.81;43.97;99562.94;5072726;28;45528;-64
2022/09/28 11:47:59;;;;;;;;;2.00;2.00;;;;;17.74;44.18;99556.78;5068773;27;45461;-64
2022/09/28 11:51:02;;;;;;;;;2.67;2.67;;;;;17.59;44.25;99562.53;5074290;28;45641;-65
2022/09/28 11:53:41;;;;;;;;;2.00;2.00;;;;;17.48;44.15;99560.91;5069615;28;45447;-65
2022/09/28 11:56:22;;;;;;;;;1.00;1.00;;;;;17.35;44.03;99567.50;5068515;27;45508;-65
2022/09/28 11:58:56;;;;;;;;;4.67;3.67;;;;;17.30;44.66;99553.19;5072063;27;45435;-67
2022/09/28 12:01:34;;;;;;;;;3.67;1.67;;;;;17.32;44.52;99535.16;5071350;28;45607;-64